sensor_id;sensor_type;location;lat;lon;timestamp;temperature;humidity
22674;DHT22;11504;43.334;21.918;2023-02-08T00:00:17;-0.3;100.0
22674;DHT22;11504;43.334;21.918;2023-02-08T00:04:53;-0.3;100.0
22674;DHT22;11504;43.334;21.918;2023-02-08T00:09:30;-0.3;100.0
22674;DHT22;11504;43.334;21.918;2023-02-08T00:46:19;-0.1;100.0
22674;DHT22;11504;43.334;21.918;2023-02-08T00:51:03;-0.1;100.0
22674;DHT22;11504;43.334;21.918;2023-02-08T00:55:40;-0.1;100.0
22674;DHT22;11504;43.334;21.918;2023-02-08T01:00:18;-0.1;100.0
22674;DHT22;11504;43.334;21.918;2023-02-08T01:04:55;-0.1;100.0
22674;DHT22;11504;43.334;21.918;2023-02-08T01:09:33;-0.1;100.0
22674;DHT22;11504;43.334;21.918;2023-02-08T01:14:10;-0.1;100.0
22674;DHT22;11504;43.334;21.918;2023-02-08T01:18:55;-0.1;100.0
22674;DHT22;11504;43.334;21.918;2023-02-08T01:23:38;-0.1;100.0
22674;DHT22;11504;43.334;21.918;2023-02-08T01:28:15;-0.1;100.0
22674;DHT22;11504;43.334;21.918;2023-02-08T01:32:52;-0.1;100.0
22674;DHT22;11504;43.334;21.918;2023-02-08T02:06:08;0.1;100.0
22674;DHT22;11504;43.334;21.918;2023-02-08T02:10:49;0.1;100.0
22674;DHT22;11504;43.334;21.918;2023-02-08T02:15:25;0.1;100.0
22674;DHT22;11504;43.334;21.918;2023-02-08T02:20:28;0.1;100.0
22674;DHT22;11504;43.334;21.918;2023-02-08T02:26:39;0.1;100.0
22674;DHT22;11504;43.334;21.918;2023-02-08T02:32:11;0.1;100.0
22674;DHT22;11504;43.334;21.918;2023-02-08T02:37:31;0.1;100.0
22674;DHT22;11504;43.334;21.918;2023-02-08T02:42:41;0.1;100.0
22674;DHT22;11504;43.334;21.918;2023-02-08T02:47:46;0.1;100.0
22674;DHT22;11504;43.334;21.918;2023-02-08T02:52:45;0.1;100.0
22674;DHT22;11504;43.334;21.918;2023-02-08T03:07:31;0.1;100.0
22674;DHT22;11504;43.334;21.918;2023-02-08T03:12:54;0.1;100.0
22674;DHT22;11504;43.334;21.918;2023-02-08T03:18:20;0.1;100.0
22674;DHT22;11504;43.334;21.918;2023-02-08T03:23:21;0.1;100.0
22674;DHT22;11504;43.334;21.918;2023-02-08T03:28:27;0.1;100.0
22674;DHT22;11504;43.334;21.918;2023-02-08T03:33:30;0.1;100.0
22674;DHT22;11504;43.334;21.918;2023-02-08T03:38:28;0.1;100.0
22674;DHT22;11504;43.334;21.918;2023-02-08T03:43:25;0.1;100.0
22674;DHT22;11504;43.334;21.918;2023-02-08T03:48:10;0.1;100.0
22674;DHT22;11504;43.334;21.918;2023-02-08T03:52:52;0.1;100.0
22674;DHT22;11504;43.334;21.918;2023-02-08T04:25:58;-0.2;100.0
22674;DHT22;11504;43.334;21.918;2023-02-08T04:30:34;-0.2;100.0
22674;DHT22;11504;43.334;21.918;2023-02-08T04:35:11;-0.2;100.0
22674;DHT22;11504;43.334;21.918;2023-02-08T04:39:47;-0.2;100.0
22674;DHT22;11504;43.334;21.918;2023-02-08T04:44:24;-0.2;100.0
22674;DHT22;11504;43.334;21.918;2023-02-08T04:49:00;-0.2;100.0
22674;DHT22;11504;43.334;21.918;2023-02-08T04:53:36;-0.1;100.0
22674;DHT22;11504;43.334;21.918;2023-02-08T04:58:13;-0.1;100.0
22674;DHT22;11504;43.334;21.918;2023-02-08T05:02:54;-0.1;100.0
22674;DHT22;11504;43.334;21.918;2023-02-08T05:07:31;-0.1;100.0
22674;DHT22;11504;43.334;21.918;2023-02-08T05:12:08;-0.1;100.0
22674;DHT22;11504;43.334;21.918;2023-02-08T06:07:24;-0.3;100.0
22674;DHT22;11504;43.334;21.918;2023-02-08T06:12:00;-0.3;100.0
22674;DHT22;11504;43.334;21.918;2023-02-08T06:16:36;-0.3;100.0
22674;DHT22;11504;43.334;21.918;2023-02-08T06:21:13;-0.3;100.0
22674;DHT22;11504;43.334;21.918;2023-02-08T06:25:50;-0.3;100.0
22674;DHT22;11504;43.334;21.918;2023-02-08T06:30:26;-0.3;100.0
22674;DHT22;11504;43.334;21.918;2023-02-08T06:35:03;-0.3;100.0
22674;DHT22;11504;43.334;21.918;2023-02-08T06:39:41;-0.3;100.0
22674;DHT22;11504;43.334;21.918;2023-02-08T06:44:17;-0.3;100.0
22674;DHT22;11504;43.334;21.918;2023-02-08T06:48:54;-0.3;100.0
22674;DHT22;11504;43.334;21.918;2023-02-08T06:53:31;-0.3;100.0
22674;DHT22;11504;43.334;21.918;2023-02-08T07:07:22;1.0;100.0
22674;DHT22;11504;43.334;21.918;2023-02-08T07:12:00;1.0;100.0
22674;DHT22;11504;43.334;21.918;2023-02-08T07:16:40;1.0;100.0
22674;DHT22;11504;43.334;21.918;2023-02-08T07:21:17;1.0;100.0
22674;DHT22;11504;43.334;21.918;2023-02-08T07:25:59;1.6;100.0
22674;DHT22;11504;43.334;21.918;2023-02-08T07:30:37;1.6;100.0
22674;DHT22;11504;43.334;21.918;2023-02-08T07:35:13;2.1;100.0
22674;DHT22;11504;43.334;21.918;2023-02-08T07:39:49;2.1;100.0
22674;DHT22;11504;43.334;21.918;2023-02-08T07:44:26;3.0;100.0
22674;DHT22;11504;43.334;21.918;2023-02-08T07:49:02;3.0;100.0
22674;DHT22;11504;43.334;21.918;2023-02-08T07:53:39;3.0;100.0
22674;DHT22;11504;43.334;21.918;2023-02-08T07:58:15;3.8;100.0
22674;DHT22;11504;43.334;21.918;2023-02-08T08:02:52;3.8;100.0
22674;DHT22;11504;43.334;21.918;2023-02-08T08:07:29;4.8;100.0
22674;DHT22;11504;43.334;21.918;2023-02-08T08:12:06;4.8;100.0
22674;DHT22;11504;43.334;21.918;2023-02-08T08:16:42;5.8;100.0
22674;DHT22;11504;43.334;21.918;2023-02-08T08:21:18;5.8;100.0
22674;DHT22;11504;43.334;21.918;2023-02-08T08:25:55;6.6;100.0
22674;DHT22;11504;43.334;21.918;2023-02-08T08:30:31;6.6;100.0
22674;DHT22;11504;43.334;21.918;2023-02-08T08:35:09;7.4;100.0
22674;DHT22;11504;43.334;21.918;2023-02-08T08:39:46;7.4;100.0
22674;DHT22;11504;43.334;21.918;2023-02-08T08:44:22;7.9;100.0
22674;DHT22;11504;43.334;21.918;2023-02-08T08:48:59;7.9;100.0
22674;DHT22;11504;43.334;21.918;2023-02-08T08:53:36;7.9;100.0
22674;DHT22;11504;43.334;21.918;2023-02-08T08:58:12;8.4;100.0
22674;DHT22;11504;43.334;21.918;2023-02-08T09:02:48;8.4;100.0
22674;DHT22;11504;43.334;21.918;2023-02-08T09:07:25;7.0;100.0
22674;DHT22;11504;43.334;21.918;2023-02-08T09:12:03;7.0;100.0
22674;DHT22;11504;43.334;21.918;2023-02-08T09:16:43;5.5;100.0
22674;DHT22;11504;43.334;21.918;2023-02-08T09:21:22;5.5;100.0
22674;DHT22;11504;43.334;21.918;2023-02-08T09:26:01;5.8;100.0
22674;DHT22;11504;43.334;21.918;2023-02-08T09:30:44;5.8;100.0
22674;DHT22;11504;43.334;21.918;2023-02-08T09:35:20;6.1;100.0
22674;DHT22;11504;43.334;21.918;2023-02-08T09:39:57;6.1;100.0
22674;DHT22;11504;43.334;21.918;2023-02-08T09:44:54;6.6;100.0
22674;DHT22;11504;43.334;21.918;2023-02-08T09:50:21;6.6;100.0
22674;DHT22;11504;43.334;21.918;2023-02-08T09:55:33;7.1;100.0
22674;DHT22;11504;43.334;21.918;2023-02-08T10:00:30;7.1;100.0
22674;DHT22;11504;43.334;21.918;2023-02-08T10:05:22;6.2;100.0
22674;DHT22;11504;43.334;21.918;2023-02-08T10:10:16;6.2;100.0
22674;DHT22;11504;43.334;21.918;2023-02-08T10:15:32;5.2;100.0
22674;DHT22;11504;43.334;21.918;2023-02-08T10:20:49;5.2;100.0
22674;DHT22;11504;43.334;21.918;2023-02-08T10:26:13;6.0;100.0
22674;DHT22;11504;43.334;21.918;2023-02-08T10:31:33;6.0;100.0
22674;DHT22;11504;43.334;21.918;2023-02-08T10:36:42;6.7;100.0
22674;DHT22;11504;43.334;21.918;2023-02-08T10:41:25;6.7;100.0
22674;DHT22;11504;43.334;21.918;2023-02-08T10:46:24;7.6;100.0
22674;DHT22;11504;43.334;21.918;2023-02-08T10:51:19;7.6;100.0
22674;DHT22;11504;43.334;21.918;2023-02-08T10:55:56;8.5;100.0
22674;DHT22;11504;43.334;21.918;2023-02-08T11:00:37;8.5;100.0
22674;DHT22;11504;43.334;21.918;2023-02-08T11:05:19;8.2;100.0
22674;DHT22;11504;43.334;21.918;2023-02-08T11:10:23;8.2;100.0
22674;DHT22;11504;43.334;21.918;2023-02-08T11:15:02;8.0;100.0
22674;DHT22;11504;43.334;21.918;2023-02-08T11:19:40;8.0;100.0
22674;DHT22;11504;43.334;21.918;2023-02-08T11:24:29;7.5;100.0
22674;DHT22;11504;43.334;21.918;2023-02-08T11:29:17;7.5;100.0
22674;DHT22;11504;43.334;21.918;2023-02-08T11:34:02;7.0;100.0
22674;DHT22;11504;43.334;21.918;2023-02-08T11:38:43;7.0;100.0
22674;DHT22;11504;43.334;21.918;2023-02-08T11:43:25;7.0;100.0
22674;DHT22;11504;43.334;21.918;2023-02-08T11:48:24;6.6;100.0
22674;DHT22;11504;43.334;21.918;2023-02-08T11:53:26;6.6;100.0
22674;DHT22;11504;43.334;21.918;2023-02-08T11:58:24;6.3;100.0
22674;DHT22;11504;43.334;21.918;2023-02-08T12:03:12;6.3;100.0
22674;DHT22;11504;43.334;21.918;2023-02-08T12:08:25;6.2;100.0
22674;DHT22;11504;43.334;21.918;2023-02-08T12:14:01;6.2;100.0
22674;DHT22;11504;43.334;21.918;2023-02-08T12:20:04;6.2;100.0
22674;DHT22;11504;43.334;21.918;2023-02-08T12:25:30;5.8;100.0
22674;DHT22;11504;43.334;21.918;2023-02-08T12:30:42;5.8;100.0
22674;DHT22;11504;43.334;21.918;2023-02-08T12:36:16;5.3;100.0
22674;DHT22;11504;43.334;21.918;2023-02-08T12:41:29;5.3;100.0
22674;DHT22;11504;43.334;21.918;2023-02-08T12:46:43;5.3;100.0
22674;DHT22;11504;43.334;21.918;2023-02-08T12:51:59;5.3;100.0
22674;DHT22;11504;43.334;21.918;2023-02-08T12:57:00;5.3;100.0
22674;DHT22;11504;43.334;21.918;2023-02-08T13:01:46;5.3;100.0
22674;DHT22;11504;43.334;21.918;2023-02-08T13:06:40;5.2;100.0
22674;DHT22;11504;43.334;21.918;2023-02-08T13:11:35;5.2;100.0
22674;DHT22;11504;43.334;21.918;2023-02-08T13:16:30;5.0;100.0
22674;DHT22;11504;43.334;21.918;2023-02-08T13:21:24;5.0;100.0
22674;DHT22;11504;43.334;21.918;2023-02-08T13:26:18;4.9;100.0
22674;DHT22;11504;43.334;21.918;2023-02-08T13:31:11;4.9;100.0
22674;DHT22;11504;43.334;21.918;2023-02-08T13:36:02;4.8;100.0
22674;DHT22;11504;43.334;21.918;2023-02-08T13:41:07;4.8;100.0
22674;DHT22;11504;43.334;21.918;2023-02-08T13:45:59;4.4;100.0
22674;DHT22;11504;43.334;21.918;2023-02-08T13:50:47;4.4;100.0
22674;DHT22;11504;43.334;21.918;2023-02-08T13:55:56;4.1;100.0
22674;DHT22;11504;43.334;21.918;2023-02-08T14:01:00;4.1;100.0
22674;DHT22;11504;43.334;21.918;2023-02-08T14:05:59;4.0;100.0
22674;DHT22;11504;43.334;21.918;2023-02-08T14:11:12;4.0;100.0
22674;DHT22;11504;43.334;21.918;2023-02-08T14:16:32;4.0;100.0
22674;DHT22;11504;43.334;21.918;2023-02-08T14:21:33;4.0;100.0
22674;DHT22;11504;43.334;21.918;2023-02-08T14:26:22;3.8;100.0
22674;DHT22;11504;43.334;21.918;2023-02-08T14:31:05;3.8;100.0
22674;DHT22;11504;43.334;21.918;2023-02-08T14:35:57;3.7;100.0
22674;DHT22;11504;43.334;21.918;2023-02-08T14:40:58;3.7;100.0
22674;DHT22;11504;43.334;21.918;2023-02-08T14:45:39;3.5;100.0
22674;DHT22;11504;43.334;21.918;2023-02-08T14:50:24;3.5;100.0
22674;DHT22;11504;43.334;21.918;2023-02-08T14:55:36;3.3;100.0
22674;DHT22;11504;43.334;21.918;2023-02-08T15:00:37;3.3;100.0
22674;DHT22;11504;43.334;21.918;2023-02-08T15:05:23;3.2;100.0
22674;DHT22;11504;43.334;21.918;2023-02-08T15:10:14;3.2;100.0
22674;DHT22;11504;43.334;21.918;2023-02-08T15:15:02;3.1;100.0
22674;DHT22;11504;43.334;21.918;2023-02-08T15:20:07;3.1;100.0
22674;DHT22;11504;43.334;21.918;2023-02-08T15:25:15;2.9;100.0
22674;DHT22;11504;43.334;21.918;2023-02-08T15:30:01;2.9;100.0
22674;DHT22;11504;43.334;21.918;2023-02-08T15:34:44;2.7;100.0
22674;DHT22;11504;43.334;21.918;2023-02-08T15:39:36;2.7;100.0
22674;DHT22;11504;43.334;21.918;2023-02-08T15:44:22;2.5;100.0
22674;DHT22;11504;43.334;21.918;2023-02-08T15:49:02;2.5;100.0
22674;DHT22;11504;43.334;21.918;2023-02-08T15:53:44;2.5;100.0
22674;DHT22;11504;43.334;21.918;2023-02-08T15:58:33;2.3;100.0
22674;DHT22;11504;43.334;21.918;2023-02-08T16:03:26;2.3;100.0
22674;DHT22;11504;43.334;21.918;2023-02-08T16:08:13;2.0;100.0
22674;DHT22;11504;43.334;21.918;2023-02-08T16:13:16;2.0;100.0
22674;DHT22;11504;43.334;21.918;2023-02-08T16:18:32;1.7;100.0
22674;DHT22;11504;43.334;21.918;2023-02-08T16:23:25;1.7;100.0
22674;DHT22;11504;43.334;21.918;2023-02-08T16:28:26;1.4;100.0
22674;DHT22;11504;43.334;21.918;2023-02-08T16:33:08;1.4;100.0
22674;DHT22;11504;43.334;21.918;2023-02-08T16:37:55;1.2;100.0
22674;DHT22;11504;43.334;21.918;2023-02-08T16:42:38;1.2;100.0
22674;DHT22;11504;43.334;21.918;2023-02-08T16:47:26;1.0;100.0
22674;DHT22;11504;43.334;21.918;2023-02-08T16:52:12;1.0;100.0
22674;DHT22;11504;43.334;21.918;2023-02-08T16:56:50;0.8;100.0
22674;DHT22;11504;43.334;21.918;2023-02-08T17:01:33;0.8;100.0
22674;DHT22;11504;43.334;21.918;2023-02-08T17:06:27;0.6;100.0
22674;DHT22;11504;43.334;21.918;2023-02-08T17:11:10;0.6;100.0
22674;DHT22;11504;43.334;21.918;2023-02-08T17:15:49;0.5;100.0
22674;DHT22;11504;43.334;21.918;2023-02-08T17:20:29;0.5;100.0
22674;DHT22;11504;43.334;21.918;2023-02-08T17:25:12;0.4;100.0
22674;DHT22;11504;43.334;21.918;2023-02-08T17:29:50;0.4;100.0
22674;DHT22;11504;43.334;21.918;2023-02-08T17:34:27;0.2;100.0
22674;DHT22;11504;43.334;21.918;2023-02-08T17:39:05;0.2;100.0
22674;DHT22;11504;43.334;21.918;2023-02-08T17:43:43;0.2;100.0
22674;DHT22;11504;43.334;21.918;2023-02-08T17:48:25;0.2;100.0
22674;DHT22;11504;43.334;21.918;2023-02-08T17:53:03;0.2;100.0
22674;DHT22;11504;43.334;21.918;2023-02-08T17:57:42;0.1;100.0
22674;DHT22;11504;43.334;21.918;2023-02-08T18:02:21;0.1;100.0
22674;DHT22;11504;43.334;21.918;2023-02-08T18:06:58;0.1;100.0
22674;DHT22;11504;43.334;21.918;2023-02-08T18:11:34;0.1;100.0
22674;DHT22;11504;43.334;21.918;2023-02-08T18:25:33;-0.1;100.0
22674;DHT22;11504;43.334;21.918;2023-02-08T18:30:12;-0.1;100.0
22674;DHT22;11504;43.334;21.918;2023-02-08T18:34:49;-0.1;100.0
22674;DHT22;11504;43.334;21.918;2023-02-08T18:39:26;-0.1;100.0
22674;DHT22;11504;43.334;21.918;2023-02-08T18:44:02;-0.1;100.0
22674;DHT22;11504;43.334;21.918;2023-02-08T18:48:40;-0.2;100.0
22674;DHT22;11504;43.334;21.918;2023-02-08T18:53:17;-0.2;100.0
22674;DHT22;11504;43.334;21.918;2023-02-08T18:57:54;-0.2;100.0
22674;DHT22;11504;43.334;21.918;2023-02-08T19:02:30;-0.2;100.0
22674;DHT22;11504;43.334;21.918;2023-02-08T19:07:07;-0.2;100.0
22674;DHT22;11504;43.334;21.918;2023-02-08T19:11:44;-0.2;100.0
22674;DHT22;11504;43.334;21.918;2023-02-08T19:16:22;-0.3;100.0
22674;DHT22;11504;43.334;21.918;2023-02-08T19:21:04;-0.3;100.0
22674;DHT22;11504;43.334;21.918;2023-02-08T19:25:49;-0.4;100.0
22674;DHT22;11504;43.334;21.918;2023-02-08T19:30:25;-0.4;100.0
22674;DHT22;11504;43.334;21.918;2023-02-08T19:35:02;-0.6;100.0
22674;DHT22;11504;43.334;21.918;2023-02-08T19:39:38;-0.6;100.0
22674;DHT22;11504;43.334;21.918;2023-02-08T19:44:18;-0.6;100.0
22674;DHT22;11504;43.334;21.918;2023-02-08T19:48:56;-0.6;100.0
22674;DHT22;11504;43.334;21.918;2023-02-08T19:53:34;-0.6;100.0
22674;DHT22;11504;43.334;21.918;2023-02-08T19:58:11;-0.7;100.0
22674;DHT22;11504;43.334;21.918;2023-02-08T20:02:48;-0.7;100.0
22674;DHT22;11504;43.334;21.918;2023-02-08T20:07:25;-0.8;100.0
22674;DHT22;11504;43.334;21.918;2023-02-08T20:12:03;-0.8;100.0
22674;DHT22;11504;43.334;21.918;2023-02-08T20:16:41;-0.9;100.0
22674;DHT22;11504;43.334;21.918;2023-02-08T20:21:19;-0.9;100.0
22674;DHT22;11504;43.334;21.918;2023-02-08T20:26:10;-1.0;100.0
22674;DHT22;11504;43.334;21.918;2023-02-08T20:30:56;-1.0;100.0
22674;DHT22;11504;43.334;21.918;2023-02-08T20:35:34;-1.0;100.0
22674;DHT22;11504;43.334;21.918;2023-02-08T20:40:15;-1.0;100.0
22674;DHT22;11504;43.334;21.918;2023-02-08T20:44:52;-1.0;100.0
22674;DHT22;11504;43.334;21.918;2023-02-08T20:49:30;-1.0;100.0
22674;DHT22;11504;43.334;21.918;2023-02-08T20:54:07;-1.0;100.0
22674;DHT22;11504;43.334;21.918;2023-02-08T20:58:46;-0.9;100.0
22674;DHT22;11504;43.334;21.918;2023-02-08T21:03:24;-0.9;100.0
22674;DHT22;11504;43.334;21.918;2023-02-08T21:08:00;-0.9;100.0
22674;DHT22;11504;43.334;21.918;2023-02-08T21:12:37;-0.9;100.0
22674;DHT22;11504;43.334;21.918;2023-02-08T21:17:13;-0.9;100.0
22674;DHT22;11504;43.334;21.918;2023-02-08T21:21:52;-0.9;100.0
22674;DHT22;11504;43.334;21.918;2023-02-08T21:26:33;-0.8;100.0
22674;DHT22;11504;43.334;21.918;2023-02-08T21:31:14;-0.8;100.0
22674;DHT22;11504;43.334;21.918;2023-02-08T21:36:01;-0.7;100.0
22674;DHT22;11504;43.334;21.918;2023-02-08T21:40:43;-0.7;100.0
22674;DHT22;11504;43.334;21.918;2023-02-08T21:45:20;-0.8;100.0
22674;DHT22;11504;43.334;21.918;2023-02-08T21:49:56;-0.8;100.0
22674;DHT22;11504;43.334;21.918;2023-02-08T21:54:34;-0.8;100.0
22674;DHT22;11504;43.334;21.918;2023-02-08T21:59:11;-0.8;100.0
22674;DHT22;11504;43.334;21.918;2023-02-08T22:03:47;-0.8;100.0
22674;DHT22;11504;43.334;21.918;2023-02-08T22:08:24;-0.8;100.0
22674;DHT22;11504;43.334;21.918;2023-02-08T22:13:00;-0.8;100.0
22674;DHT22;11504;43.334;21.918;2023-02-08T22:17:37;-0.8;100.0
22674;DHT22;11504;43.334;21.918;2023-02-08T22:22:15;-0.8;100.0
22674;DHT22;11504;43.334;21.918;2023-02-08T22:26:51;-0.8;100.0
22674;DHT22;11504;43.334;21.918;2023-02-08T22:31:28;-0.8;100.0
22674;DHT22;11504;43.334;21.918;2023-02-08T22:36:05;-0.8;100.0
22674;DHT22;11504;43.334;21.918;2023-02-08T22:40:46;-0.8;100.0
22674;DHT22;11504;43.334;21.918;2023-02-08T22:45:23;-0.8;100.0
22674;DHT22;11504;43.334;21.918;2023-02-08T22:50:00;-0.8;100.0
22674;DHT22;11504;43.334;21.918;2023-02-08T22:54:41;-0.8;100.0
22674;DHT22;11504;43.334;21.918;2023-02-08T22:59:18;-0.8;100.0
22674;DHT22;11504;43.334;21.918;2023-02-08T23:03:57;-0.8;100.0
22674;DHT22;11504;43.334;21.918;2023-02-08T23:08:35;-1.0;100.0
22674;DHT22;11504;43.334;21.918;2023-02-08T23:13:12;-1.0;100.0
22674;DHT22;11504;43.334;21.918;2023-02-08T23:17:50;-1.1;100.0
22674;DHT22;11504;43.334;21.918;2023-02-08T23:22:27;-1.1;100.0
22674;DHT22;11504;43.334;21.918;2023-02-08T23:27:04;-1.2;100.0
22674;DHT22;11504;43.334;21.918;2023-02-08T23:31:41;-1.2;100.0
22674;DHT22;11504;43.334;21.918;2023-02-08T23:36:20;-1.2;100.0
22674;DHT22;11504;43.334;21.918;2023-02-08T23:41:01;-1.2;100.0
22674;DHT22;11504;43.334;21.918;2023-02-08T23:45:39;-1.3;100.0
22674;DHT22;11504;43.334;21.918;2023-02-08T23:50:16;-1.3;100.0
22674;DHT22;11504;43.334;21.918;2023-02-08T23:54:52;-1.4;100.0
22674;DHT22;11504;43.334;21.918;2023-02-08T23:59:28;-1.4;100.0
